sensor_id;sensor_type;location;lat;lon;timestamp;temperature;humidity
3402;DHT22;1714;49.756;8.610;2022-09-30T09:33:37;10.60;91.00
3402;DHT22;1714;49.756;8.610;2022-09-30T09:44:10;11.80;75.90
3402;DHT22;1714;49.756;8.610;2022-09-30T09:54:20;12.40;65.90
3402;DHT22;1714;49.756;8.610;2022-09-30T10:04:26;12.60;59.20
3402;DHT22;1714;49.756;8.610;2022-09-30T10:14:34;13.40;55.00
3402;DHT22;1714;49.756;8.610;2022-09-30T10:24:38;13.90;47.10
3402;DHT22;1714;49.756;8.610;2022-09-30T10:34:41;14.60;49.00
3402;DHT22;1714;49.756;8.610;2022-09-30T10:44:59;15.00;43.20
3402;DHT22;1714;49.756;8.610;2022-09-30T10:55:13;15.30;40.90
3402;DHT22;1714;49.756;8.610;2022-09-30T11:05:31;15.70;36.30
3402;DHT22;1714;49.756;8.610;2022-09-30T11:15:51;15.70;33.30
3402;DHT22;1714;49.756;8.610;2022-09-30T11:26:16;16.40;30.50
3402;DHT22;1714;49.756;8.610;2022-09-30T11:36:27;16.70;28.00
3402;DHT22;1714;49.756;8.610;2022-09-30T11:57:36;16.80;20.00
3402;DHT22;1714;49.756;8.610;2022-09-30T12:07:50;17.20;18.80
3402;DHT22;1714;49.756;8.610;2022-09-30T12:18:18;17.20;18.70
3402;DHT22;1714;49.756;8.610;2022-09-30T12:39:29;17.10;18.70
3402;DHT22;1714;49.756;8.610;2022-09-30T12:49:38;17.30;17.80
3402;DHT22;1714;49.756;8.610;2022-09-30T13:00:00;16.90;17.10
3402;DHT22;1714;49.756;8.610;2022-09-30T13:10:28;17.00;18.00
3402;DHT22;1714;49.756;8.610;2022-09-30T13:20:55;17.00;19.40
3402;DHT22;1714;49.756;8.610;2022-09-30T13:31:17;17.40;16.50
3402;DHT22;1714;49.756;8.610;2022-09-30T13:41:23;17.90;15.10
3402;DHT22;1714;49.756;8.610;2022-09-30T13:51:32;18.00;15.70
3402;DHT22;1714;49.756;8.610;2022-09-30T14:02:04;17.90;13.90
3402;DHT22;1714;49.756;8.610;2022-09-30T14:22:51;17.70;12.80
3402;DHT22;1714;49.756;8.610;2022-09-30T14:33:02;17.80;14.10
3402;DHT22;1714;49.756;8.610;2022-09-30T14:43:16;17.80;14.50
3402;DHT22;1714;49.756;8.610;2022-09-30T14:53:30;17.90;13.90
3402;DHT22;1714;49.756;8.610;2022-09-30T15:03:35;17.70;15.00
3402;DHT22;1714;49.756;8.610;2022-09-30T15:13:39;17.60;14.70
3402;DHT22;1714;49.756;8.610;2022-09-30T15:23:47;17.40;15.60
3402;DHT22;1714;49.756;8.610;2022-09-30T15:44:27;17.20;17.00
3402;DHT22;1714;49.756;8.610;2022-09-30T15:54:39;17.20;17.30
3402;DHT22;1714;49.756;8.610;2022-09-30T16:04:41;16.80;17.10
3402;DHT22;1714;49.756;8.610;2022-09-30T16:14:47;16.50;18.20
3402;DHT22;1714;49.756;8.610;2022-09-30T16:25:02;16.40;18.80
3402;DHT22;1714;49.756;8.610;2022-09-30T16:35:16;16.10;22.60
3402;DHT22;1714;49.756;8.610;2022-09-30T16:45:19;15.60;24.80
3402;DHT22;1714;49.756;8.610;2022-09-30T16:55:23;15.10;27.70
3402;DHT22;1714;49.756;8.610;2022-09-30T17:05:26;14.80;29.80
3402;DHT22;1714;49.756;8.610;2022-09-30T17:15:29;14.20;40.50
3402;DHT22;1714;49.756;8.610;2022-09-30T17:25:31;13.60;48.60
3402;DHT22;1714;49.756;8.610;2022-09-30T17:35:33;13.30;48.50
3402;DHT22;1714;49.756;8.610;2022-09-30T17:45:37;12.90;55.30
3402;DHT22;1714;49.756;8.610;2022-09-30T17:55:40;12.70;56.70
3402;DHT22;1714;49.756;8.610;2022-09-30T18:05:42;12.40;62.30
3402;DHT22;1714;49.756;8.610;2022-09-30T18:15:45;12.10;63.70
3402;DHT22;1714;49.756;8.610;2022-09-30T18:25:48;12.00;65.00
3402;DHT22;1714;49.756;8.610;2022-09-30T18:35:51;11.80;64.80
3402;DHT22;1714;49.756;8.610;2022-09-30T18:45:57;11.50;66.80
3402;DHT22;1714;49.756;8.610;2022-09-30T18:56:02;11.40;66.50
3402;DHT22;1714;49.756;8.610;2022-09-30T19:06:07;11.20;69.50
3402;DHT22;1714;49.756;8.610;2022-09-30T19:16:11;11.20;71.10
3402;DHT22;1714;49.756;8.610;2022-09-30T19:26:14;11.20;65.20
3402;DHT22;1714;49.756;8.610;2022-09-30T19:36:16;11.50;62.40
